KMGJ

Orange County Airport

Montgomery, New York, USA
METAR KMGJ 231954Z AUTO 30003KT 10SM FEW038 SCT070 SCT100 12/07 A2988 RMK AO2 PK WND 24028/1916 RAB1858E46 SLP121 P0005 T01220072 $
Observed Flight Rules
Oct-23 @ 19:54 UTC (60 minutes ago) Visual Flight Rules
Wind Visibility Clouds
300° at 3 knots 10 miles
  • Few at 3,800' AGL
  • Scattered at 7,000' AGL
  • Scattered at 10,000' AGL
Temperatures Readings Precipitation
Current 12°C / 54°F
Dewpoint 7°C / 45°F
Humidity 72%
Altimeter 29.88" Hg
Pressure 1012.1 hPa
Elevation 108
Current Rain 0.05
METAR KMGJ 231954Z AUTO 30003KT 10SM FEW038 SCT070 SCT100 12/07 A2988 RMK AO2 PK WND 24028/1916 RAB1858E46 SLP121 P0005 T01220072 $
Observed Flight Rules
Oct-23 @ 19:54 UTC
(60 minutes ago)
VFR
Wind Visibility
300° at 3 knots 10 miles
Clouds
  • Few at 3,800' AGL
  • Scattered at 7,000' AGL
  • Scattered at 10,000' AGL
Temperature Dewpoint
12°C / 54°F 7°C / 45°F
Humidity Altimeter Pressure
72% 29.88" Hg 1012.1 hPa
Current Rain
0.05